sensor_id;sensor_type;location;lat;lon;timestamp;P1;durP1;ratioP1;P2;durP2;ratioP2
80778;SDS011;70170;47.856;10.956;2023-08-12T00:02:32;4.82;;;4.38;;
80778;SDS011;70170;47.856;10.956;2023-08-12T00:04:57;6.05;;;5.30;;
80778;SDS011;70170;47.856;10.956;2023-08-12T00:07:22;6.40;;;5.30;;
80778;SDS011;70170;47.856;10.956;2023-08-12T00:09:48;5.45;;;4.93;;
80778;SDS011;70170;47.856;10.956;2023-08-12T00:12:14;7.22;;;5.28;;
80778;SDS011;70170;47.856;10.956;2023-08-12T00:14:40;5.57;;;5.07;;
80778;SDS011;70170;47.856;10.956;2023-08-12T00:17:05;6.78;;;5.50;;
80778;SDS011;70170;47.856;10.956;2023-08-12T00:19:30;6.25;;;5.57;;
80778;SDS011;70170;47.856;10.956;2023-08-12T00:21:55;8.20;;;5.57;;
80778;SDS011;70170;47.856;10.956;2023-08-12T00:24:21;10.48;;;6.30;;
80778;SDS011;70170;47.856;10.956;2023-08-12T00:26:46;11.05;;;7.15;;
80778;SDS011;70170;47.856;10.956;2023-08-12T00:29:11;8.82;;;6.82;;
80778;SDS011;70170;47.856;10.956;2023-08-12T00:31:37;10.52;;;6.68;;
80778;SDS011;70170;47.856;10.956;2023-08-12T00:34:02;11.95;;;6.70;;
80778;SDS011;70170;47.856;10.956;2023-08-12T00:36:27;9.18;;;6.40;;
80778;SDS011;70170;47.856;10.956;2023-08-12T00:38:53;12.98;;;7.40;;
80778;SDS011;70170;47.856;10.956;2023-08-12T00:41:18;9.18;;;7.18;;
80778;SDS011;70170;47.856;10.956;2023-08-12T00:43:43;12.18;;;6.93;;
80778;SDS011;70170;47.856;10.956;2023-08-12T00:46:09;9.88;;;6.97;;
80778;SDS011;70170;47.856;10.956;2023-08-12T00:48:34;8.32;;;6.95;;
80778;SDS011;70170;47.856;10.956;2023-08-12T00:50:59;16.88;;;6.78;;
80778;SDS011;70170;47.856;10.956;2023-08-12T00:53:25;13.45;;;7.07;;
80778;SDS011;70170;47.856;10.956;2023-08-12T00:55:50;9.95;;;6.07;;
80778;SDS011;70170;47.856;10.956;2023-08-12T00:58:16;7.63;;;6.28;;
80778;SDS011;70170;47.856;10.956;2023-08-12T01:00:41;12.75;;;6.43;;
80778;SDS011;70170;47.856;10.956;2023-08-12T01:03:07;8.90;;;5.93;;
80778;SDS011;70170;47.856;10.956;2023-08-12T01:05:32;11.48;;;5.75;;
80778;SDS011;70170;47.856;10.956;2023-08-12T01:07:58;8.43;;;5.45;;
80778;SDS011;70170;47.856;10.956;2023-08-12T01:10:23;6.55;;;5.57;;
80778;SDS011;70170;47.856;10.956;2023-08-12T01:12:58;8.35;;;5.88;;
80778;SDS011;70170;47.856;10.956;2023-08-12T01:15:29;9.05;;;5.20;;
80778;SDS011;70170;47.856;10.956;2023-08-12T01:17:55;5.82;;;5.10;;
80778;SDS011;70170;47.856;10.956;2023-08-12T01:20:23;7.75;;;5.32;;
80778;SDS011;70170;47.856;10.956;2023-08-12T01:22:58;5.90;;;4.97;;
80778;SDS011;70170;47.856;10.956;2023-08-12T01:25:45;5.90;;;5.30;;
80778;SDS011;70170;47.856;10.956;2023-08-12T01:28:10;5.72;;;5.13;;
80778;SDS011;70170;47.856;10.956;2023-08-12T01:30:38;14.63;;;6.10;;
80778;SDS011;70170;47.856;10.956;2023-08-12T01:33:20;6.50;;;5.07;;
80778;SDS011;70170;47.856;10.956;2023-08-12T01:35:52;8.48;;;4.60;;
80778;SDS011;70170;47.856;10.956;2023-08-12T01:38:25;5.45;;;4.93;;
80778;SDS011;70170;47.856;10.956;2023-08-12T01:40:52;7.85;;;4.80;;
80778;SDS011;70170;47.856;10.956;2023-08-12T01:43:18;6.70;;;5.15;;
80778;SDS011;70170;47.856;10.956;2023-08-12T01:45:44;7.00;;;4.97;;
80778;SDS011;70170;47.856;10.956;2023-08-12T01:48:10;6.30;;;4.70;;
80778;SDS011;70170;47.856;10.956;2023-08-12T01:50:35;8.23;;;5.00;;
80778;SDS011;70170;47.856;10.956;2023-08-12T01:53:00;7.47;;;5.13;;
80778;SDS011;70170;47.856;10.956;2023-08-12T01:55:26;7.28;;;5.25;;
80778;SDS011;70170;47.856;10.956;2023-08-12T01:57:51;6.45;;;5.25;;
80778;SDS011;70170;47.856;10.956;2023-08-12T02:00:17;8.50;;;6.40;;
80778;SDS011;70170;47.856;10.956;2023-08-12T02:02:43;7.95;;;5.93;;
80778;SDS011;70170;47.856;10.956;2023-08-12T02:05:11;8.65;;;6.00;;
80778;SDS011;70170;47.856;10.956;2023-08-12T02:07:36;7.05;;;5.78;;
80778;SDS011;70170;47.856;10.956;2023-08-12T02:10:01;8.52;;;6.10;;
80778;SDS011;70170;47.856;10.956;2023-08-12T02:12:27;9.60;;;6.78;;
80778;SDS011;70170;47.856;10.956;2023-08-12T02:14:52;6.97;;;6.03;;
80778;SDS011;70170;47.856;10.956;2023-08-12T02:17:17;7.78;;;5.95;;
80778;SDS011;70170;47.856;10.956;2023-08-12T02:19:43;7.25;;;6.00;;
80778;SDS011;70170;47.856;10.956;2023-08-12T02:22:08;7.72;;;6.05;;
80778;SDS011;70170;47.856;10.956;2023-08-12T02:24:35;7.55;;;5.80;;
80778;SDS011;70170;47.856;10.956;2023-08-12T02:27:00;7.80;;;6.40;;
80778;SDS011;70170;47.856;10.956;2023-08-12T02:29:26;10.20;;;6.38;;
80778;SDS011;70170;47.856;10.956;2023-08-12T02:31:51;6.70;;;5.75;;
80778;SDS011;70170;47.856;10.956;2023-08-12T02:34:16;6.55;;;5.82;;
80778;SDS011;70170;47.856;10.956;2023-08-12T02:36:42;8.80;;;5.90;;
80778;SDS011;70170;47.856;10.956;2023-08-12T02:39:07;8.98;;;6.32;;
80778;SDS011;70170;47.856;10.956;2023-08-12T02:41:32;9.25;;;6.30;;
80778;SDS011;70170;47.856;10.956;2023-08-12T02:43:57;11.15;;;7.05;;
80778;SDS011;70170;47.856;10.956;2023-08-12T02:46:23;9.57;;;5.65;;
80778;SDS011;70170;47.856;10.956;2023-08-12T02:48:50;6.55;;;5.57;;
80778;SDS011;70170;47.856;10.956;2023-08-12T02:51:15;9.32;;;6.10;;
80778;SDS011;70170;47.856;10.956;2023-08-12T02:53:41;8.85;;;5.80;;
80778;SDS011;70170;47.856;10.956;2023-08-12T02:56:06;9.45;;;5.32;;
80778;SDS011;70170;47.856;10.956;2023-08-12T02:58:31;5.97;;;4.95;;
80778;SDS011;70170;47.856;10.956;2023-08-12T03:00:56;6.93;;;5.10;;
80778;SDS011;70170;47.856;10.956;2023-08-12T03:03:22;6.15;;;5.28;;
80778;SDS011;70170;47.856;10.956;2023-08-12T03:05:47;10.85;;;5.22;;
80778;SDS011;70170;47.856;10.956;2023-08-12T03:08:13;9.02;;;5.63;;
80778;SDS011;70170;47.856;10.956;2023-08-12T03:10:39;6.82;;;5.75;;
80778;SDS011;70170;47.856;10.956;2023-08-12T03:13:05;6.80;;;5.90;;
80778;SDS011;70170;47.856;10.956;2023-08-12T03:15:31;7.90;;;6.00;;
80778;SDS011;70170;47.856;10.956;2023-08-12T03:17:56;7.75;;;5.88;;
80778;SDS011;70170;47.856;10.956;2023-08-12T03:20:22;11.93;;;6.28;;
80778;SDS011;70170;47.856;10.956;2023-08-12T03:22:47;8.38;;;5.85;;
80778;SDS011;70170;47.856;10.956;2023-08-12T03:25:13;8.10;;;5.68;;
80778;SDS011;70170;47.856;10.956;2023-08-12T03:27:39;9.15;;;6.35;;
80778;SDS011;70170;47.856;10.956;2023-08-12T03:30:05;6.45;;;5.28;;
80778;SDS011;70170;47.856;10.956;2023-08-12T03:32:31;7.15;;;5.53;;
80778;SDS011;70170;47.856;10.956;2023-08-12T03:34:56;7.13;;;5.32;;
80778;SDS011;70170;47.856;10.956;2023-08-12T03:37:22;8.57;;;5.30;;
80778;SDS011;70170;47.856;10.956;2023-08-12T03:39:47;9.82;;;5.30;;
80778;SDS011;70170;47.856;10.956;2023-08-12T03:42:12;7.28;;;4.72;;
80778;SDS011;70170;47.856;10.956;2023-08-12T03:44:38;6.93;;;5.30;;
80778;SDS011;70170;47.856;10.956;2023-08-12T03:47:03;7.00;;;5.53;;
80778;SDS011;70170;47.856;10.956;2023-08-12T03:49:28;7.32;;;4.90;;
80778;SDS011;70170;47.856;10.956;2023-08-12T03:51:54;6.82;;;5.10;;
80778;SDS011;70170;47.856;10.956;2023-08-12T03:54:19;6.28;;;5.68;;
80778;SDS011;70170;47.856;10.956;2023-08-12T03:56:44;6.03;;;4.78;;
80778;SDS011;70170;47.856;10.956;2023-08-12T03:59:10;7.75;;;5.07;;
80778;SDS011;70170;47.856;10.956;2023-08-12T04:01:36;5.38;;;4.80;;
80778;SDS011;70170;47.856;10.956;2023-08-12T04:04:02;6.75;;;4.95;;
80778;SDS011;70170;47.856;10.956;2023-08-12T04:06:27;9.52;;;5.18;;
80778;SDS011;70170;47.856;10.956;2023-08-12T04:08:52;6.60;;;5.38;;
80778;SDS011;70170;47.856;10.956;2023-08-12T04:11:18;7.45;;;5.40;;
80778;SDS011;70170;47.856;10.956;2023-08-12T04:13:43;9.05;;;5.10;;
80778;SDS011;70170;47.856;10.956;2023-08-12T04:16:08;6.55;;;4.90;;
80778;SDS011;70170;47.856;10.956;2023-08-12T04:18:34;9.57;;;5.75;;
80778;SDS011;70170;47.856;10.956;2023-08-12T04:20:59;8.93;;;5.60;;
80778;SDS011;70170;47.856;10.956;2023-08-12T04:23:24;8.43;;;5.50;;
80778;SDS011;70170;47.856;10.956;2023-08-12T04:25:50;7.25;;;5.55;;
80778;SDS011;70170;47.856;10.956;2023-08-12T04:28:17;6.65;;;5.88;;
80778;SDS011;70170;47.856;10.956;2023-08-12T04:30:43;9.93;;;6.57;;
80778;SDS011;70170;47.856;10.956;2023-08-12T04:33:09;9.40;;;6.53;;
80778;SDS011;70170;47.856;10.956;2023-08-12T04:35:35;11.73;;;6.30;;
80778;SDS011;70170;47.856;10.956;2023-08-12T04:38:00;11.05;;;6.53;;
80778;SDS011;70170;47.856;10.956;2023-08-12T04:40:26;11.38;;;5.90;;
80778;SDS011;70170;47.856;10.956;2023-08-12T04:42:51;6.63;;;5.15;;
80778;SDS011;70170;47.856;10.956;2023-08-12T04:45:17;7.28;;;4.90;;
80778;SDS011;70170;47.856;10.956;2023-08-12T04:47:42;8.32;;;5.45;;
80778;SDS011;70170;47.856;10.956;2023-08-12T04:50:07;7.80;;;5.20;;
80778;SDS011;70170;47.856;10.956;2023-08-12T04:52:33;7.07;;;5.45;;
80778;SDS011;70170;47.856;10.956;2023-08-12T04:54:58;6.80;;;4.60;;
80778;SDS011;70170;47.856;10.956;2023-08-12T04:57:23;4.70;;;4.20;;
80778;SDS011;70170;47.856;10.956;2023-08-12T04:59:49;6.97;;;4.30;;
80778;SDS011;70170;47.856;10.956;2023-08-12T05:02:14;5.28;;;3.88;;
80778;SDS011;70170;47.856;10.956;2023-08-12T05:04:40;5.65;;;4.60;;
80778;SDS011;70170;47.856;10.956;2023-08-12T05:07:05;4.68;;;4.28;;
80778;SDS011;70170;47.856;10.956;2023-08-12T05:09:30;7.30;;;4.03;;
80778;SDS011;70170;47.856;10.956;2023-08-12T05:11:56;4.78;;;4.38;;
80778;SDS011;70170;47.856;10.956;2023-08-12T05:14:21;5.40;;;3.80;;
80778;SDS011;70170;47.856;10.956;2023-08-12T05:16:46;7.38;;;3.55;;
80778;SDS011;70170;47.856;10.956;2023-08-12T05:19:12;3.97;;;3.53;;
80778;SDS011;70170;47.856;10.956;2023-08-12T05:21:37;4.05;;;3.35;;
80778;SDS011;70170;47.856;10.956;2023-08-12T05:24:03;5.20;;;3.40;;
80778;SDS011;70170;47.856;10.956;2023-08-12T05:26:28;4.13;;;3.60;;
80778;SDS011;70170;47.856;10.956;2023-08-12T05:28:54;4.03;;;3.30;;
80778;SDS011;70170;47.856;10.956;2023-08-12T05:31:19;3.65;;;3.35;;
80778;SDS011;70170;47.856;10.956;2023-08-12T05:33:44;3.85;;;3.05;;
80778;SDS011;70170;47.856;10.956;2023-08-12T05:36:10;3.40;;;3.10;;
80778;SDS011;70170;47.856;10.956;2023-08-12T05:38:35;4.55;;;3.10;;
80778;SDS011;70170;47.856;10.956;2023-08-12T05:41:00;3.35;;;3.03;;
80778;SDS011;70170;47.856;10.956;2023-08-12T05:43:26;2.90;;;2.70;;
80778;SDS011;70170;47.856;10.956;2023-08-12T05:45:51;7.13;;;2.65;;
80778;SDS011;70170;47.856;10.956;2023-08-12T05:48:16;5.25;;;2.80;;
80778;SDS011;70170;47.856;10.956;2023-08-12T05:50:43;2.88;;;2.63;;
80778;SDS011;70170;47.856;10.956;2023-08-12T05:53:08;2.70;;;2.50;;
80778;SDS011;70170;47.856;10.956;2023-08-12T05:55:34;2.88;;;2.50;;
80778;SDS011;70170;47.856;10.956;2023-08-12T05:58:00;4.30;;;2.38;;
80778;SDS011;70170;47.856;10.956;2023-08-12T06:00:25;3.33;;;2.60;;
80778;SDS011;70170;47.856;10.956;2023-08-12T06:02:50;3.00;;;2.58;;
80778;SDS011;70170;47.856;10.956;2023-08-12T06:05:15;2.60;;;2.35;;
80778;SDS011;70170;47.856;10.956;2023-08-12T06:07:41;2.60;;;2.40;;
80778;SDS011;70170;47.856;10.956;2023-08-12T06:10:06;2.80;;;2.60;;
80778;SDS011;70170;47.856;10.956;2023-08-12T06:12:32;2.90;;;2.28;;
80778;SDS011;70170;47.856;10.956;2023-08-12T06:14:57;4.63;;;2.65;;
80778;SDS011;70170;47.856;10.956;2023-08-12T06:17:22;3.45;;;2.30;;
80778;SDS011;70170;47.856;10.956;2023-08-12T06:19:48;3.95;;;2.42;;
80778;SDS011;70170;47.856;10.956;2023-08-12T06:22:13;2.45;;;2.25;;
80778;SDS011;70170;47.856;10.956;2023-08-12T06:24:38;2.40;;;2.20;;
80778;SDS011;70170;47.856;10.956;2023-08-12T06:27:04;3.03;;;2.55;;
80778;SDS011;70170;47.856;10.956;2023-08-12T06:29:29;4.45;;;2.47;;
80778;SDS011;70170;47.856;10.956;2023-08-12T06:31:55;2.40;;;2.20;;
80778;SDS011;70170;47.856;10.956;2023-08-12T06:34:20;3.05;;;2.28;;
80778;SDS011;70170;47.856;10.956;2023-08-12T06:36:46;2.42;;;2.22;;
80778;SDS011;70170;47.856;10.956;2023-08-12T06:39:34;2.20;;;2.00;;
80778;SDS011;70170;47.856;10.956;2023-08-12T06:41:59;2.63;;;2.40;;
80778;SDS011;70170;47.856;10.956;2023-08-12T06:44:25;2.55;;;1.90;;
80778;SDS011;70170;47.856;10.956;2023-08-12T06:46:50;2.67;;;2.35;;
80778;SDS011;70170;47.856;10.956;2023-08-12T06:49:15;3.50;;;2.47;;
80778;SDS011;70170;47.856;10.956;2023-08-12T06:51:41;3.60;;;2.40;;
80778;SDS011;70170;47.856;10.956;2023-08-12T06:54:06;2.55;;;2.35;;
80778;SDS011;70170;47.856;10.956;2023-08-12T06:56:31;5.88;;;2.65;;
80778;SDS011;70170;47.856;10.956;2023-08-12T06:58:57;5.20;;;2.13;;
80778;SDS011;70170;47.856;10.956;2023-08-12T07:01:22;2.50;;;2.30;;
80778;SDS011;70170;47.856;10.956;2023-08-12T07:03:47;2.65;;;2.20;;
80778;SDS011;70170;47.856;10.956;2023-08-12T07:06:13;2.47;;;2.30;;
80778;SDS011;70170;47.856;10.956;2023-08-12T07:08:38;3.45;;;2.40;;
80778;SDS011;70170;47.856;10.956;2023-08-12T07:11:03;4.60;;;2.45;;
80778;SDS011;70170;47.856;10.956;2023-08-12T07:13:29;2.45;;;2.25;;
80778;SDS011;70170;47.856;10.956;2023-08-12T07:15:55;3.33;;;2.40;;
80778;SDS011;70170;47.856;10.956;2023-08-12T07:18:20;3.25;;;2.50;;
80778;SDS011;70170;47.856;10.956;2023-08-12T07:20:47;3.70;;;2.15;;
80778;SDS011;70170;47.856;10.956;2023-08-12T07:23:13;3.75;;;2.60;;
80778;SDS011;70170;47.856;10.956;2023-08-12T07:25:38;4.13;;;2.33;;
80778;SDS011;70170;47.856;10.956;2023-08-12T07:28:05;2.17;;;2.08;;
80778;SDS011;70170;47.856;10.956;2023-08-12T07:30:30;2.75;;;2.55;;
80778;SDS011;70170;47.856;10.956;2023-08-12T07:32:55;2.45;;;2.10;;
80778;SDS011;70170;47.856;10.956;2023-08-12T07:35:21;2.90;;;2.40;;
80778;SDS011;70170;47.856;10.956;2023-08-12T07:37:46;5.10;;;2.55;;
80778;SDS011;70170;47.856;10.956;2023-08-12T07:40:11;4.13;;;2.40;;
80778;SDS011;70170;47.856;10.956;2023-08-12T07:42:37;2.95;;;2.28;;
80778;SDS011;70170;47.856;10.956;2023-08-12T07:45:03;2.30;;;2.10;;
80778;SDS011;70170;47.856;10.956;2023-08-12T07:47:28;4.07;;;2.40;;
80778;SDS011;70170;47.856;10.956;2023-08-12T07:49:54;3.53;;;2.40;;
80778;SDS011;70170;47.856;10.956;2023-08-12T07:52:19;7.22;;;2.40;;
80778;SDS011;70170;47.856;10.956;2023-08-12T07:54:45;2.70;;;2.50;;
80778;SDS011;70170;47.856;10.956;2023-08-12T07:57:10;2.55;;;2.35;;
80778;SDS011;70170;47.856;10.956;2023-08-12T07:59:36;4.07;;;2.38;;
80778;SDS011;70170;47.856;10.956;2023-08-12T08:02:01;2.67;;;2.10;;
80778;SDS011;70170;47.856;10.956;2023-08-12T08:04:26;3.53;;;2.72;;
80778;SDS011;70170;47.856;10.956;2023-08-12T08:06:51;3.92;;;2.35;;
80778;SDS011;70170;47.856;10.956;2023-08-12T08:09:17;3.42;;;2.53;;
80778;SDS011;70170;47.856;10.956;2023-08-12T08:11:42;3.75;;;2.60;;
80778;SDS011;70170;47.856;10.956;2023-08-12T08:14:07;2.97;;;2.45;;
80778;SDS011;70170;47.856;10.956;2023-08-12T08:16:33;4.95;;;2.22;;
80778;SDS011;70170;47.856;10.956;2023-08-12T08:18:58;6.07;;;2.58;;
80778;SDS011;70170;47.856;10.956;2023-08-12T08:21:23;3.00;;;2.70;;
80778;SDS011;70170;47.856;10.956;2023-08-12T08:23:49;4.10;;;2.40;;
80778;SDS011;70170;47.856;10.956;2023-08-12T08:26:14;3.10;;;2.60;;
80778;SDS011;70170;47.856;10.956;2023-08-12T08:28:40;4.10;;;2.88;;
80778;SDS011;70170;47.856;10.956;2023-08-12T08:31:06;3.67;;;2.80;;
80778;SDS011;70170;47.856;10.956;2023-08-12T08:33:31;2.80;;;2.55;;
80778;SDS011;70170;47.856;10.956;2023-08-12T08:35:57;2.78;;;2.53;;
80778;SDS011;70170;47.856;10.956;2023-08-12T08:38:22;4.20;;;2.42;;
80778;SDS011;70170;47.856;10.956;2023-08-12T08:40:49;2.58;;;2.38;;
80778;SDS011;70170;47.856;10.956;2023-08-12T08:43:15;4.05;;;2.35;;
80778;SDS011;70170;47.856;10.956;2023-08-12T08:45:47;3.25;;;2.95;;
80778;SDS011;70170;47.856;10.956;2023-08-12T08:48:14;3.25;;;2.75;;
80778;SDS011;70170;47.856;10.956;2023-08-12T08:50:42;2.58;;;2.40;;
80778;SDS011;70170;47.856;10.956;2023-08-12T08:53:08;2.60;;;2.40;;
80778;SDS011;70170;47.856;10.956;2023-08-12T08:55:33;2.40;;;2.20;;
80778;SDS011;70170;47.856;10.956;2023-08-12T08:57:59;3.78;;;2.38;;
80778;SDS011;70170;47.856;10.956;2023-08-12T09:00:25;3.00;;;2.70;;
80778;SDS011;70170;47.856;10.956;2023-08-12T09:02:51;3.30;;;2.58;;
80778;SDS011;70170;47.856;10.956;2023-08-12T09:05:18;4.60;;;2.50;;
80778;SDS011;70170;47.856;10.956;2023-08-12T09:07:45;3.70;;;2.78;;
80778;SDS011;70170;47.856;10.956;2023-08-12T09:10:12;3.90;;;2.40;;
80778;SDS011;70170;47.856;10.956;2023-08-12T09:12:38;3.80;;;2.30;;
80778;SDS011;70170;47.856;10.956;2023-08-12T09:15:04;2.58;;;2.38;;
80778;SDS011;70170;47.856;10.956;2023-08-12T09:17:31;2.80;;;2.53;;
80778;SDS011;70170;47.856;10.956;2023-08-12T09:19:57;2.50;;;2.30;;
80778;SDS011;70170;47.856;10.956;2023-08-12T09:22:23;2.83;;;2.47;;
80778;SDS011;70170;47.856;10.956;2023-08-12T09:24:50;5.95;;;2.50;;
80778;SDS011;70170;47.856;10.956;2023-08-12T09:27:20;5.93;;;2.88;;
80778;SDS011;70170;47.856;10.956;2023-08-12T09:29:46;2.70;;;2.50;;
80778;SDS011;70170;47.856;10.956;2023-08-12T09:32:12;2.60;;;2.40;;
80778;SDS011;70170;47.856;10.956;2023-08-12T09:37:06;2.47;;;2.28;;
80778;SDS011;70170;47.856;10.956;2023-08-12T09:39:31;2.45;;;2.22;;
80778;SDS011;70170;47.856;10.956;2023-08-12T09:41:56;5.40;;;2.50;;
80778;SDS011;70170;47.856;10.956;2023-08-12T09:44:23;5.40;;;2.55;;
80778;SDS011;70170;47.856;10.956;2023-08-12T09:46:48;9.82;;;2.40;;
80778;SDS011;70170;47.856;10.956;2023-08-12T09:49:13;2.50;;;2.30;;
80778;SDS011;70170;47.856;10.956;2023-08-12T09:51:38;3.50;;;2.45;;
80778;SDS011;70170;47.856;10.956;2023-08-12T09:54:08;2.70;;;2.45;;
80778;SDS011;70170;47.856;10.956;2023-08-12T09:56:35;2.45;;;2.30;;
80778;SDS011;70170;47.856;10.956;2023-08-12T09:59:01;3.03;;;2.30;;
80778;SDS011;70170;47.856;10.956;2023-08-12T10:01:30;2.42;;;2.22;;
80778;SDS011;70170;47.856;10.956;2023-08-12T10:03:56;21.10;;;2.78;;
80778;SDS011;70170;47.856;10.956;2023-08-12T10:06:21;3.20;;;2.40;;
80778;SDS011;70170;47.856;10.956;2023-08-12T10:08:47;6.05;;;2.08;;
80778;SDS011;70170;47.856;10.956;2023-08-12T10:11:14;3.33;;;2.70;;
80778;SDS011;70170;47.856;10.956;2023-08-12T10:13:45;2.60;;;2.40;;
80778;SDS011;70170;47.856;10.956;2023-08-12T10:16:11;2.25;;;2.10;;
80778;SDS011;70170;47.856;10.956;2023-08-12T10:18:38;2.50;;;2.30;;
80778;SDS011;70170;47.856;10.956;2023-08-12T10:21:05;3.47;;;2.58;;
80778;SDS011;70170;47.856;10.956;2023-08-12T10:23:33;2.85;;;2.15;;
80778;SDS011;70170;47.856;10.956;2023-08-12T10:25:59;2.60;;;2.40;;
80778;SDS011;70170;47.856;10.956;2023-08-12T10:28:25;2.80;;;2.60;;
80778;SDS011;70170;47.856;10.956;2023-08-12T10:30:50;3.45;;;2.80;;
80778;SDS011;70170;47.856;10.956;2023-08-12T10:33:16;3.75;;;3.03;;
80778;SDS011;70170;47.856;10.956;2023-08-12T10:35:46;5.82;;;5.28;;
80778;SDS011;70170;47.856;10.956;2023-08-12T10:38:14;12.38;;;9.15;;
80778;SDS011;70170;47.856;10.956;2023-08-12T10:40:42;8.25;;;5.20;;
80778;SDS011;70170;47.856;10.956;2023-08-12T10:43:08;3.47;;;3.17;;
80778;SDS011;70170;47.856;10.956;2023-08-12T10:45:41;5.50;;;4.53;;
80778;SDS011;70170;47.856;10.956;2023-08-12T10:48:09;4.57;;;3.78;;
80778;SDS011;70170;47.856;10.956;2023-08-12T10:50:43;6.90;;;3.83;;
80778;SDS011;70170;47.856;10.956;2023-08-12T10:53:27;5.28;;;3.55;;
80778;SDS011;70170;47.856;10.956;2023-08-12T10:58:24;3.75;;;2.80;;
80778;SDS011;70170;47.856;10.956;2023-08-12T11:00:53;2.50;;;2.30;;
80778;SDS011;70170;47.856;10.956;2023-08-12T11:03:19;2.58;;;2.30;;
80778;SDS011;70170;47.856;10.956;2023-08-12T11:05:45;5.20;;;2.47;;
80778;SDS011;70170;47.856;10.956;2023-08-12T11:08:11;2.67;;;2.47;;
80778;SDS011;70170;47.856;10.956;2023-08-12T11:10:38;2.78;;;2.30;;
80778;SDS011;70170;47.856;10.956;2023-08-12T11:13:04;5.10;;;2.40;;
80778;SDS011;70170;47.856;10.956;2023-08-12T11:15:40;2.53;;;2.33;;
80778;SDS011;70170;47.856;10.956;2023-08-12T11:18:08;2.92;;;2.65;;
80778;SDS011;70170;47.856;10.956;2023-08-12T11:20:35;3.97;;;2.50;;
80778;SDS011;70170;47.856;10.956;2023-08-12T11:23:01;3.63;;;2.50;;
80778;SDS011;70170;47.856;10.956;2023-08-12T11:25:28;9.07;;;2.40;;
80778;SDS011;70170;47.856;10.956;2023-08-12T11:27:55;3.72;;;2.55;;
80778;SDS011;70170;47.856;10.956;2023-08-12T11:30:21;2.55;;;2.20;;
80778;SDS011;70170;47.856;10.956;2023-08-12T11:32:48;2.60;;;2.40;;
80778;SDS011;70170;47.856;10.956;2023-08-12T11:35:15;2.40;;;2.30;;
80778;SDS011;70170;47.856;10.956;2023-08-12T11:37:42;3.95;;;2.40;;
80778;SDS011;70170;47.856;10.956;2023-08-12T11:40:10;2.85;;;2.50;;
80778;SDS011;70170;47.856;10.956;2023-08-12T11:42:39;3.08;;;2.58;;
80778;SDS011;70170;47.856;10.956;2023-08-12T11:45:07;3.47;;;2.55;;
80778;SDS011;70170;47.856;10.956;2023-08-12T11:47:36;5.65;;;2.45;;
80778;SDS011;70170;47.856;10.956;2023-08-12T11:50:02;2.80;;;2.50;;
80778;SDS011;70170;47.856;10.956;2023-08-12T11:52:29;2.67;;;2.30;;
80778;SDS011;70170;47.856;10.956;2023-08-12T11:54:54;2.42;;;2.22;;
80778;SDS011;70170;47.856;10.956;2023-08-12T11:57:22;5.22;;;2.80;;
80778;SDS011;70170;47.856;10.956;2023-08-12T11:59:48;4.45;;;2.00;;
80778;SDS011;70170;47.856;10.956;2023-08-12T12:02:14;2.30;;;2.10;;
80778;SDS011;70170;47.856;10.956;2023-08-12T12:04:40;3.33;;;2.20;;
80778;SDS011;70170;47.856;10.956;2023-08-12T12:07:19;2.40;;;2.20;;
80778;SDS011;70170;47.856;10.956;2023-08-12T12:09:46;4.40;;;2.40;;
80778;SDS011;70170;47.856;10.956;2023-08-12T12:12:12;3.17;;;2.20;;
80778;SDS011;70170;47.856;10.956;2023-08-12T12:14:37;4.00;;;2.45;;
80778;SDS011;70170;47.856;10.956;2023-08-12T12:17:06;2.50;;;2.30;;
80778;SDS011;70170;47.856;10.956;2023-08-12T12:19:39;2.75;;;2.53;;
80778;SDS011;70170;47.856;10.956;2023-08-12T12:22:05;2.50;;;2.30;;
80778;SDS011;70170;47.856;10.956;2023-08-12T12:24:31;5.63;;;3.13;;
80778;SDS011;70170;47.856;10.956;2023-08-12T12:26:56;2.97;;;2.38;;
80778;SDS011;70170;47.856;10.956;2023-08-12T12:29:22;4.80;;;2.80;;
80778;SDS011;70170;47.856;10.956;2023-08-12T12:31:47;2.83;;;2.60;;
80778;SDS011;70170;47.856;10.956;2023-08-12T12:34:13;4.55;;;2.47;;
80778;SDS011;70170;47.856;10.956;2023-08-12T12:36:39;4.05;;;2.50;;
80778;SDS011;70170;47.856;10.956;2023-08-12T12:39:05;4.00;;;2.75;;
80778;SDS011;70170;47.856;10.956;2023-08-12T12:41:31;3.50;;;2.63;;
80778;SDS011;70170;47.856;10.956;2023-08-12T12:43:57;3.13;;;2.83;;
80778;SDS011;70170;47.856;10.956;2023-08-12T12:46:24;2.60;;;2.40;;
80778;SDS011;70170;47.856;10.956;2023-08-12T12:48:49;3.45;;;2.30;;
80778;SDS011;70170;47.856;10.956;2023-08-12T12:51:15;2.70;;;2.50;;
80778;SDS011;70170;47.856;10.956;2023-08-12T12:53:40;4.43;;;2.42;;
80778;SDS011;70170;47.856;10.956;2023-08-12T12:56:06;6.40;;;2.55;;
80778;SDS011;70170;47.856;10.956;2023-08-12T12:58:36;2.63;;;2.42;;
80778;SDS011;70170;47.856;10.956;2023-08-12T13:01:02;4.60;;;2.95;;
80778;SDS011;70170;47.856;10.956;2023-08-12T13:03:32;2.38;;;2.17;;
80778;SDS011;70170;47.856;10.956;2023-08-12T13:05:57;3.92;;;2.80;;
80778;SDS011;70170;47.856;10.956;2023-08-12T13:08:23;2.88;;;2.58;;
80778;SDS011;70170;47.856;10.956;2023-08-12T13:10:49;5.68;;;2.53;;
80778;SDS011;70170;47.856;10.956;2023-08-12T13:13:16;2.58;;;2.30;;
80778;SDS011;70170;47.856;10.956;2023-08-12T13:15:41;2.83;;;2.55;;
80778;SDS011;70170;47.856;10.956;2023-08-12T13:18:07;4.20;;;2.80;;
80778;SDS011;70170;47.856;10.956;2023-08-12T13:20:33;3.67;;;2.40;;
80778;SDS011;70170;47.856;10.956;2023-08-12T13:22:59;3.10;;;2.50;;
80778;SDS011;70170;47.856;10.956;2023-08-12T13:25:24;6.30;;;2.25;;
80778;SDS011;70170;47.856;10.956;2023-08-12T13:27:50;2.67;;;2.47;;
80778;SDS011;70170;47.856;10.956;2023-08-12T13:30:15;2.45;;;2.30;;
80778;SDS011;70170;47.856;10.956;2023-08-12T13:32:40;3.10;;;2.47;;
80778;SDS011;70170;47.856;10.956;2023-08-12T13:35:06;2.70;;;2.50;;
80778;SDS011;70170;47.856;10.956;2023-08-12T13:37:32;2.55;;;2.35;;
80778;SDS011;70170;47.856;10.956;2023-08-12T13:39:58;3.13;;;2.22;;
80778;SDS011;70170;47.856;10.956;2023-08-12T13:42:23;5.05;;;2.20;;
80778;SDS011;70170;47.856;10.956;2023-08-12T13:44:49;8.68;;;2.30;;
80778;SDS011;70170;47.856;10.956;2023-08-12T13:47:14;3.22;;;2.17;;
80778;SDS011;70170;47.856;10.956;2023-08-12T13:49:39;6.88;;;2.53;;
80778;SDS011;70170;47.856;10.956;2023-08-12T13:52:04;5.93;;;2.80;;
80778;SDS011;70170;47.856;10.956;2023-08-12T13:54:30;6.57;;;2.22;;
80778;SDS011;70170;47.856;10.956;2023-08-12T13:56:55;2.90;;;2.13;;
80778;SDS011;70170;47.856;10.956;2023-08-12T13:59:20;5.07;;;2.65;;
80778;SDS011;70170;47.856;10.956;2023-08-12T14:01:46;4.78;;;2.15;;
80778;SDS011;70170;47.856;10.956;2023-08-12T14:04:11;3.67;;;2.00;;
80778;SDS011;70170;47.856;10.956;2023-08-12T14:06:37;2.00;;;1.80;;
80778;SDS011;70170;47.856;10.956;2023-08-12T14:09:02;2.75;;;1.85;;
80778;SDS011;70170;47.856;10.956;2023-08-12T14:11:28;3.30;;;2.10;;
80778;SDS011;70170;47.856;10.956;2023-08-12T14:13:53;2.08;;;1.70;;
80778;SDS011;70170;47.856;10.956;2023-08-12T14:16:18;3.75;;;2.20;;
80778;SDS011;70170;47.856;10.956;2023-08-12T14:18:45;3.00;;;1.85;;
80778;SDS011;70170;47.856;10.956;2023-08-12T14:21:10;7.70;;;2.20;;
80778;SDS011;70170;47.856;10.956;2023-08-12T14:23:35;7.32;;;2.28;;
80778;SDS011;70170;47.856;10.956;2023-08-12T14:26:01;4.47;;;2.00;;
80778;SDS011;70170;47.856;10.956;2023-08-12T14:28:26;2.33;;;2.10;;
80778;SDS011;70170;47.856;10.956;2023-08-12T14:30:51;6.68;;;2.30;;
80778;SDS011;70170;47.856;10.956;2023-08-12T14:33:18;5.85;;;2.33;;